Time;durP1;ratioP1;P1;durP2;ratioP2;P2;SDS_P1;SDS_P2;PMS_P1;PMS_P2;Temp;Humidity;BMP_temperature;BMP_pressure;BME280_temperature;BME280_humidity;BME280_pressure;Samples;Min_cycle;Max_cycle;Signal;HPM_P1;HPM_P2
2024/01/28 00:02:25;;;;;;;26.65;11.60;;;-2.40;99.90;;;;;;5026384;28;20046;-76
2024/01/28 00:04:51;;;;;;;18.70;11.18;;;-2.40;99.90;;;;;;5025626;28;20025;-77
2024/01/28 00:07:17;;;;;;;26.90;12.07;;;-2.40;99.90;;;;;;5023783;28;20501;-77
2024/01/28 00:09:42;;;;;;;30.83;12.23;;;-2.40;99.90;;;;;;5024149;28;20572;-76
2024/01/28 00:12:10;;;;;;;23.50;11.77;;;-2.40;99.90;;;;;;5039022;28;20025;-76
2024/01/28 00:14:35;;;;;;;22.27;10.95;;;-2.50;99.90;;;;;;5021114;28;20184;-76
2024/01/28 00:17:01;;;;;;;26.15;10.98;;;-2.50;99.90;;;;;;5039879;28;20054;-76
2024/01/28 00:19:27;;;;;;;29.25;12.45;;;-2.50;99.90;;;;;;5038028;28;20033;-76
2024/01/28 00:21:53;;;;;;;23.70;11.57;;;-2.50;99.90;;;;;;5023493;28;20101;-76
2024/01/28 00:24:20;;;;;;;25.40;12.60;;;-2.50;99.90;;;;;;5024133;28;20537;-77
2024/01/28 00:26:46;;;;;;;21.88;12.40;;;-2.50;99.90;;;;;;5023948;28;20060;-77
2024/01/28 00:29:12;;;;;;;21.45;11.55;;;-2.50;99.90;;;;;;5009737;28;20033;-77
2024/01/28 00:31:38;;;;;;;19.25;9.55;;;-2.50;99.90;;;;;;5023710;28;20029;-76
2024/01/28 00:34:03;;;;;;;17.02;9.82;;;-2.60;99.90;;;;;;5042276;28;20063;-76
2024/01/28 00:36:29;;;;;;;18.85;10.00;;;-2.60;99.90;;;;;;5045720;28;20057;-76
2024/01/28 00:38:55;;;;;;;18.73;10.02;;;-2.60;99.90;;;;;;5026372;28;20068;-76
2024/01/28 00:41:29;;;;;;;20.77;10.15;;;-2.60;99.90;;;;;;5026389;28;20079;-76
2024/01/28 00:43:56;;;;;;;21.90;9.93;;;-2.60;99.90;;;;;;5028092;28;20044;-76
2024/01/28 00:46:22;;;;;;;21.35;10.13;;;-2.60;99.90;;;;;;5026646;28;20021;-76
2024/01/28 00:48:49;;;;;;;20.20;9.68;;;-2.70;99.90;;;;;;5027960;28;20116;-76
2024/01/28 00:51:15;;;;;;;20.67;9.45;;;-2.70;99.90;;;;;;5026514;28;20349;-76
2024/01/28 00:53:41;;;;;;;20.25;10.25;;;-2.70;99.90;;;;;;5024988;28;20156;-76
2024/01/28 00:56:07;;;;;;;20.23;10.07;;;-2.70;99.90;;;;;;5024999;28;20560;-76
2024/01/28 00:58:33;;;;;;;21.95;9.43;;;-2.80;99.90;;;;;;5025377;28;20044;-76
2024/01/28 01:00:59;;;;;;;20.27;10.35;;;-2.80;99.90;;;;;;5040815;28;20030;-76
2024/01/28 01:03:24;;;;;;;18.95;9.15;;;-2.70;99.90;;;;;;5022839;28;20025;-76
2024/01/28 01:05:50;;;;;;;17.88;9.00;;;-2.70;99.90;;;;;;5025385;28;20112;-76
2024/01/28 01:08:16;;;;;;;18.25;8.35;;;-2.70;99.90;;;;;;5025236;28;20075;-76
2024/01/28 01:10:42;;;;;;;18.75;9.23;;;-2.80;99.90;;;;;;5021323;28;20041;-76
2024/01/28 01:13:08;;;;;;;15.48;8.73;;;-2.80;99.90;;;;;;5024190;28;20022;-76
2024/01/28 01:15:34;;;;;;;15.93;8.35;;;-2.80;99.90;;;;;;5041362;28;20472;-76
2024/01/28 01:17:59;;;;;;;16.90;7.93;;;-2.80;99.90;;;;;;5057386;28;20610;-76
2024/01/28 01:20:25;;;;;;;14.98;8.20;;;-2.80;99.90;;;;;;5027250;28;20390;-76
2024/01/28 01:22:53;;;;;;;23.88;9.25;;;-2.80;99.90;;;;;;5023603;28;20034;-76
2024/01/28 01:25:19;;;;;;;20.13;9.40;;;-2.80;99.90;;;;;;5025604;28;20481;-76
2024/01/28 01:27:48;;;;;;;18.33;8.77;;;-2.90;99.90;;;;;;5023794;28;20033;-76
2024/01/28 01:30:15;;;;;;;19.00;8.00;;;-2.80;99.90;;;;;;5022547;28;20037;-76
2024/01/28 01:32:40;;;;;;;19.58;8.68;;;-2.80;99.90;;;;;;5022917;28;20022;-76
2024/01/28 01:35:14;;;;;;;21.70;8.07;;;-2.80;99.90;;;;;;5037655;28;20036;-76
2024/01/28 01:37:40;;;;;;;17.20;8.70;;;-2.80;99.90;;;;;;5057993;28;20037;-76
2024/01/28 01:40:07;;;;;;;19.92;8.65;;;-2.90;99.90;;;;;;5024765;28;20531;-76
2024/01/28 01:42:33;;;;;;;16.92;8.25;;;-2.90;99.90;;;;;;5024518;28;20132;-77
2024/01/28 01:44:58;;;;;;;20.02;8.88;;;-2.90;99.90;;;;;;5023854;28;20116;-76
2024/01/28 01:47:28;;;;;;;18.25;8.52;;;-2.90;99.90;;;;;;5028553;28;20036;-76
2024/01/28 01:49:54;;;;;;;18.75;8.45;;;-2.90;99.90;;;;;;5025696;28;20021;-76
2024/01/28 01:52:21;;;;;;;16.80;8.70;;;-2.90;99.90;;;;;;5031111;28;20049;-76
2024/01/28 01:54:49;;;;;;;15.90;8.05;;;-2.80;99.90;;;;;;5024381;28;20124;-76
2024/01/28 01:57:17;;;;;;;24.60;8.90;;;-2.80;99.90;;;;;;5023769;28;20036;-76
2024/01/28 01:59:43;;;;;;;17.50;7.45;;;-2.70;99.90;;;;;;5020069;28;20045;-76
2024/01/28 02:02:10;;;;;;;16.90;7.47;;;-2.70;99.90;;;;;;5020747;28;20030;-76
2024/01/28 02:04:36;;;;;;;14.90;7.07;;;-2.70;99.90;;;;;;5053158;28;20029;-76
2024/01/28 02:07:02;;;;;;;15.10;6.82;;;-2.70;99.90;;;;;;5026322;28;20026;-76
2024/01/28 02:09:29;;;;;;;14.48;6.57;;;-2.70;99.90;;;;;;5029430;28;20022;-77
2024/01/28 02:11:54;;;;;;;18.50;7.88;;;-2.70;99.90;;;;;;5025698;28;20041;-76
2024/01/28 02:14:24;;;;;;;19.38;7.40;;;-2.70;99.90;;;;;;5027434;28;20042;-76
2024/01/28 02:16:50;;;;;;;19.88;7.82;;;-2.70;99.90;;;;;;5027008;28;20037;-77
2024/01/28 02:19:17;;;;;;;18.45;7.18;;;-2.80;99.90;;;;;;5026046;28;20029;-76
2024/01/28 02:21:43;;;;;;;15.98;7.07;;;-2.80;99.90;;;;;;5026796;28;20048;-77
2024/01/28 02:24:09;;;;;;;18.52;7.35;;;-2.80;99.90;;;;;;5029281;28;20381;-76
2024/01/28 02:26:34;;;;;;;14.88;6.63;;;-2.80;99.90;;;;;;5027412;28;20025;-76
2024/01/28 02:29:00;;;;;;;14.38;7.40;;;-2.90;99.90;;;;;;5043563;28;20037;-76
2024/01/28 02:31:26;;;;;;;14.88;7.18;;;-2.90;99.90;;;;;;5012650;28;20017;-76
2024/01/28 02:33:51;;;;;;;15.95;6.85;;;-2.90;99.90;;;;;;5058269;28;20041;-76
2024/01/28 02:36:17;;;;;;;13.32;6.70;;;-3.00;99.90;;;;;;5027213;28;20057;-76
2024/01/28 02:38:43;;;;;;;12.25;6.80;;;-3.00;99.90;;;;;;5030498;28;20029;-76
2024/01/28 02:41:09;;;;;;;15.38;7.20;;;-3.00;99.90;;;;;;5029004;28;20037;-76
2024/01/28 02:43:35;;;;;;;16.75;7.35;;;-3.10;99.90;;;;;;5029032;28;20520;-76
2024/01/28 02:46:01;;;;;;;13.48;6.70;;;-3.10;99.90;;;;;;5057606;28;20489;-76
2024/01/28 02:48:26;;;;;;;13.20;6.75;;;-3.10;99.90;;;;;;5029583;28;20033;-76
2024/01/28 02:50:52;;;;;;;12.07;6.43;;;-3.10;99.90;;;;;;5045171;28;20034;-76
2024/01/28 02:53:18;;;;;;;15.10;6.68;;;-3.10;99.90;;;;;;5035558;28;20075;-76
2024/01/28 02:55:43;;;;;;;15.05;7.18;;;-3.20;99.90;;;;;;5028292;28;20040;-76
2024/01/28 02:58:09;;;;;;;16.48;6.68;;;-3.20;99.90;;;;;;5030466;28;20068;-76
2024/01/28 03:00:38;;;;;;;16.48;6.78;;;-3.10;99.90;;;;;;5045456;28;20038;-77
2024/01/28 03:03:04;;;;;;;17.10;7.15;;;-3.10;99.90;;;;;;5029028;28;20052;-76
2024/01/28 03:05:30;;;;;;;18.30;6.97;;;-3.10;99.90;;;;;;5029733;28;20026;-76
2024/01/28 03:07:56;;;;;;;16.90;7.53;;;-3.10;99.90;;;;;;5029121;28;20036;-76
2024/01/28 03:10:21;;;;;;;16.65;7.20;;;-3.10;99.90;;;;;;5028093;28;20417;-77
2024/01/28 03:12:49;;;;;;;16.30;7.18;;;-3.10;99.90;;;;;;5026742;28;20104;-77
2024/01/28 03:15:18;;;;;;;18.30;8.00;;;-3.10;99.90;;;;;;5025512;28;20683;-76
2024/01/28 03:17:44;;;;;;;20.38;7.53;;;-3.10;99.90;;;;;;5027996;28;20088;-76
2024/01/28 03:20:10;;;;;;;16.25;6.85;;;-3.00;99.90;;;;;;5028148;28;20584;-76
2024/01/28 03:22:36;;;;;;;16.20;7.55;;;-3.00;99.90;;;;;;5027215;28;20038;-76
2024/01/28 03:25:02;;;;;;;21.42;6.68;;;-3.10;99.90;;;;;;5006719;28;20128;-76
2024/01/28 03:27:27;;;;;;;15.77;6.60;;;-3.00;99.90;;;;;;5026057;28;20103;-76
2024/01/28 03:29:53;;;;;;;16.70;7.15;;;-3.10;99.90;;;;;;5029833;28;20025;-77
2024/01/28 03:32:19;;;;;;;23.10;8.65;;;-3.10;99.90;;;;;;5024356;28;20038;-77
2024/01/28 03:34:45;;;;;;;13.07;7.03;;;-3.10;99.90;;;;;;5025340;28;20140;-76
2024/01/28 03:37:10;;;;;;;15.10;7.30;;;-3.10;99.90;;;;;;5028268;28;20048;-76
2024/01/28 03:39:36;;;;;;;16.75;6.78;;;-3.10;99.90;;;;;;5045529;28;20025;-76
2024/01/28 03:42:38;;;;;;;16.02;7.20;;;-3.10;99.90;;;;;;5029414;28;20053;-76
2024/01/28 03:45:05;;;;;;;16.42;7.25;;;-3.20;99.90;;;;;;5023128;28;20132;-77
2024/01/28 03:47:32;;;;;;;21.98;8.60;;;-3.00;99.90;;;;;;5028802;28;20482;-77
2024/01/28 03:49:58;;;;;;;21.80;8.85;;;-3.00;99.90;;;;;;5024019;28;20489;-76
2024/01/28 03:52:23;;;;;;;22.85;8.90;;;-2.80;99.90;;;;;;5028120;28;20029;-77
2024/01/28 03:54:49;;;;;;;23.92;11.25;;;-2.80;99.90;;;;;;5024119;28;20022;-76
2024/01/28 03:57:15;;;;;;;20.42;9.68;;;-2.70;99.90;;;;;;5028037;28;20065;-77
2024/01/28 03:59:41;;;;;;;20.58;9.68;;;-2.60;99.90;;;;;;5027850;28;20060;-77
2024/01/28 04:02:07;;;;;;;21.02;10.68;;;-2.60;99.90;;;;;;5025325;28;20022;-77
2024/01/28 04:04:34;;;;;;;20.15;9.57;;;-2.60;99.90;;;;;;5036228;28;20666;-77
2024/01/28 04:06:59;;;;;;;17.42;8.98;;;-2.60;99.90;;;;;;5025549;28;20128;-76
2024/01/28 04:09:25;;;;;;;24.90;9.15;;;-2.60;99.90;;;;;;5028959;28;20124;-77
2024/01/28 04:11:51;;;;;;;21.48;10.07;;;-2.50;99.90;;;;;;5026641;28;20116;-76
2024/01/28 04:14:17;;;;;;;16.42;8.57;;;-2.40;99.90;;;;;;5026648;28;20037;-76
2024/01/28 04:16:43;;;;;;;21.95;8.75;;;-2.40;99.90;;;;;;5026556;28;20041;-77
2024/01/28 04:19:08;;;;;;;20.88;8.75;;;-2.40;99.90;;;;;;5040855;28;20567;-76
2024/01/28 04:21:35;;;;;;;17.55;8.65;;;-2.40;99.90;;;;;;5025686;28;20043;-77
2024/01/28 04:24:01;;;;;;;18.67;8.30;;;-2.50;99.90;;;;;;5024931;28;20049;-76
2024/01/28 04:26:28;;;;;;;21.40;8.98;;;-2.50;99.90;;;;;;5026323;28;20029;-76
2024/01/28 04:28:54;;;;;;;19.25;8.27;;;-2.60;99.90;;;;;;5026615;28;20362;-77
2024/01/28 04:31:21;;;;;;;23.70;8.57;;;-2.60;99.90;;;;;;5033983;28;20286;-77
2024/01/28 04:33:47;;;;;;;23.85;8.57;;;-2.60;99.90;;;;;;5029581;28;20034;-77
2024/01/28 04:36:13;;;;;;;16.20;8.35;;;-2.60;99.90;;;;;;5031044;28;20030;-78
2024/01/28 04:38:39;;;;;;;16.10;7.82;;;-2.60;99.90;;;;;;5041784;28;20097;-78
2024/01/28 04:41:05;;;;;;;18.42;8.25;;;-2.50;99.90;;;;;;5033110;28;20072;-78
2024/01/28 04:43:31;;;;;;;19.20;8.30;;;-2.50;99.90;;;;;;5049415;28;20041;-78
2024/01/28 04:45:57;;;;;;;21.13;8.55;;;-2.50;99.90;;;;;;5030312;28;20101;-78
2024/01/28 04:48:23;;;;;;;16.98;8.20;;;-2.40;99.90;;;;;;5033763;28;20418;-78
2024/01/28 04:50:48;;;;;;;25.70;9.35;;;-2.40;99.90;;;;;;5046697;28;20034;-78
2024/01/28 04:53:14;;;;;;;18.75;8.15;;;-2.40;99.90;;;;;;5023701;28;20120;-78
2024/01/28 04:55:40;;;;;;;20.35;8.65;;;-2.30;99.90;;;;;;5031644;28;20021;-78
2024/01/28 04:58:06;;;;;;;21.05;8.90;;;-2.30;99.90;;;;;;5033384;28;20042;-78
2024/01/28 05:00:31;;;;;;;16.77;7.97;;;-2.40;99.90;;;;;;5017002;28;20052;-78
2024/01/28 05:02:57;;;;;;;17.95;7.75;;;-2.40;99.90;;;;;;5032867;28;20048;-78
2024/01/28 05:05:23;;;;;;;13.68;6.30;;;-2.40;99.90;;;;;;5033790;28;20033;-78
2024/01/28 05:07:49;;;;;;;14.57;6.97;;;-2.50;99.90;;;;;;5030444;28;20038;-78
2024/01/28 05:10:16;;;;;;;17.63;6.97;;;-2.50;99.90;;;;;;5033229;28;20527;-78
2024/01/28 05:12:42;;;;;;;13.27;5.88;;;-2.60;99.90;;;;;;5028876;28;20033;-78
2024/01/28 05:15:09;;;;;;;13.27;6.45;;;-2.60;99.90;;;;;;5029810;28;20067;-77
2024/01/28 05:17:38;;;;;;;15.60;7.22;;;-2.70;99.90;;;;;;5030499;28;20112;-78
2024/01/28 05:20:04;;;;;;;18.20;7.40;;;-2.70;99.90;;;;;;5031477;28;20056;-78
2024/01/28 05:22:30;;;;;;;15.48;6.60;;;-2.70;99.90;;;;;;5033452;28;20105;-79
2024/01/28 05:24:55;;;;;;;15.82;7.90;;;-2.70;99.90;;;;;;5044250;28;20076;-78
2024/01/28 05:27:21;;;;;;;21.83;8.05;;;-2.50;99.90;;;;;;5029465;28;20025;-77
2024/01/28 05:29:47;;;;;;;16.48;7.97;;;-2.50;99.90;;;;;;5031911;28;20053;-78
2024/01/28 05:32:14;;;;;;;18.48;7.38;;;-2.40;99.90;;;;;;5033793;28;20053;-79
2024/01/28 05:34:40;;;;;;;15.57;7.65;;;-2.40;99.90;;;;;;5015440;28;20069;-78
2024/01/28 05:37:06;;;;;;;20.13;7.85;;;-2.40;99.90;;;;;;5045007;28;20033;-78
2024/01/28 05:39:32;;;;;;;16.48;7.63;;;-2.50;99.90;;;;;;5033885;28;20033;-78
2024/01/28 05:41:57;;;;;;;15.57;7.72;;;-2.50;99.90;;;;;;5031912;28;20148;-78
2024/01/28 05:44:23;;;;;;;17.08;7.82;;;-2.50;99.90;;;;;;5032554;28;20375;-78
2024/01/28 05:46:49;;;;;;;15.23;6.85;;;-2.50;99.90;;;;;;5031716;28;20037;-79
2024/01/28 05:49:15;;;;;;;17.70;7.28;;;-2.50;99.90;;;;;;5045299;28;20060;-79
2024/01/28 05:51:41;;;;;;;22.08;9.30;;;-2.50;99.90;;;;;;5033987;28;20041;-78
2024/01/28 05:54:07;;;;;;;15.38;7.20;;;-2.50;99.90;;;;;;5029343;28;20120;-78
2024/01/28 05:56:32;;;;;;;16.05;7.32;;;-2.50;99.90;;;;;;5033002;28;20029;-78
2024/01/28 05:58:58;;;;;;;21.25;8.00;;;-2.50;99.90;;;;;;5032076;28;20030;-78
2024/01/28 06:01:24;;;;;;;23.95;9.55;;;-2.50;99.90;;;;;;5036677;28;20030;-78
2024/01/28 06:03:50;;;;;;;23.52;9.07;;;-2.50;99.90;;;;;;5020286;28;20124;-78
2024/01/28 06:06:15;;;;;;;25.67;8.98;;;-2.50;99.90;;;;;;5037296;28;20029;-79
2024/01/28 06:08:42;;;;;;;17.95;8.85;;;-2.40;99.90;;;;;;5034553;28;20037;-79
2024/01/28 06:11:08;;;;;;;25.48;8.65;;;-2.40;99.90;;;;;;5037397;28;20079;-78
2024/01/28 06:13:35;;;;;;;18.00;7.80;;;-2.30;99.90;;;;;;5035828;28;20463;-78
2024/01/28 06:16:01;;;;;;;21.40;9.30;;;-2.10;99.90;;;;;;5033317;28;20398;-79
2024/01/28 06:18:27;;;;;;;17.65;7.68;;;-2.10;99.90;;;;;;5036227;28;20029;-79
2024/01/28 06:20:52;;;;;;;23.20;7.93;;;-2.00;99.90;;;;;;5033659;28;20025;-78
2024/01/28 06:23:22;;;;;;;16.42;8.82;;;-1.80;99.90;;;;;;5033073;28;20033;-80
2024/01/28 06:25:47;;;;;;;19.48;7.60;;;-1.70;99.90;;;;;;5070480;28;20033;-78
2024/01/28 06:28:14;;;;;;;17.50;9.27;;;-1.70;99.90;;;;;;5030711;28;20109;-79
2024/01/28 06:30:39;;;;;;;23.77;7.95;;;-1.70;99.90;;;;;;5032155;28;20075;-77
2024/01/28 06:33:05;;;;;;;22.38;8.27;;;-1.70;99.90;;;;;;5032275;28;20038;-78
2024/01/28 06:35:31;;;;;;;27.20;8.15;;;-1.70;99.90;;;;;;5030843;28;20042;-78
2024/01/28 06:37:57;;;;;;;21.35;7.78;;;-1.70;99.90;;;;;;5013767;28;20030;-79
2024/01/28 06:40:23;;;;;;;22.88;7.28;;;-1.70;99.90;;;;;;5031465;28;20498;-78
2024/01/28 06:42:49;;;;;;;18.55;7.35;;;-1.70;99.90;;;;;;5031188;28;20091;-78
2024/01/28 06:45:14;;;;;;;16.98;7.28;;;-1.70;99.90;;;;;;5029805;28;20327;-78
2024/01/28 06:47:40;;;;;;;16.27;7.28;;;-1.80;99.90;;;;;;5032317;28;20018;-77
2024/01/28 06:50:06;;;;;;;25.30;7.47;;;-1.70;99.90;;;;;;5028760;28;20032;-80
2024/01/28 06:52:32;;;;;;;22.08;7.45;;;-1.80;99.90;;;;;;5027620;28;20490;-77
2024/01/28 06:54:58;;;;;;;18.73;8.25;;;-1.70;99.90;;;;;;5024306;28;20091;-78
2024/01/28 06:57:24;;;;;;;19.17;7.57;;;-1.60;99.90;;;;;;5031758;28;20037;-78
2024/01/28 06:59:50;;;;;;;18.17;7.50;;;-1.60;99.90;;;;;;5061971;28;20037;-77
2024/01/28 07:02:16;;;;;;;14.52;6.75;;;-1.60;99.90;;;;;;5030714;28;20033;-78
2024/01/28 07:04:42;;;;;;;15.73;6.68;;;-1.60;99.90;;;;;;5034730;28;20061;-78
2024/01/28 07:07:07;;;;;;;23.25;7.28;;;-1.60;99.90;;;;;;5033727;28;20079;-78
2024/01/28 07:09:33;;;;;;;11.52;6.15;;;-1.50;99.90;;;;;;5032276;28;20498;-79
2024/01/28 07:11:59;;;;;;;19.63;6.63;;;-1.50;99.90;;;;;;5031541;28;20053;-78
2024/01/28 07:14:25;;;;;;;19.63;6.75;;;-1.50;99.90;;;;;;5030231;28;20033;-78
2024/01/28 07:16:51;;;;;;;22.10;6.85;;;-1.40;99.90;;;;;;5031636;28;20030;-80
2024/01/28 07:19:16;;;;;;;13.70;5.95;;;-1.40;99.90;;;;;;5031185;28;20033;-77
2024/01/28 07:21:42;;;;;;;16.77;6.05;;;-1.40;99.90;;;;;;5030659;28;20039;-77
2024/01/28 07:24:08;;;;;;;14.75;6.25;;;-1.30;99.90;;;;;;5031333;28;20091;-79
2024/01/28 07:26:34;;;;;;;20.55;6.80;;;-1.30;99.90;;;;;;5031174;28;20425;-78
2024/01/28 07:29:00;;;;;;;20.42;6.30;;;-1.20;99.90;;;;;;5031505;28;20033;-79
2024/01/28 07:31:26;;;;;;;22.15;6.43;;;-1.10;99.90;;;;;;5029846;28;20512;-79
2024/01/28 07:33:52;;;;;;;19.70;6.47;;;-1.10;99.90;;;;;;5030617;28;20039;-78
2024/01/28 07:36:18;;;;;;;17.02;6.60;;;-1.10;99.90;;;;;;5031680;28;20025;-79
2024/01/28 07:38:44;;;;;;;20.17;6.63;;;-1.10;99.90;;;;;;5032016;28;20436;-77
2024/01/28 07:41:14;;;;;;;17.55;6.07;;;-1.10;99.90;;;;;;5026744;28;20582;-77
2024/01/28 07:43:43;;;;;;;18.98;6.18;;;-1.00;99.90;;;;;;5021801;28;20406;-78
2024/01/28 07:46:09;;;;;;;19.88;7.03;;;-1.00;99.90;;;;;;5029726;28;20026;-78
2024/01/28 07:48:35;;;;;;;13.90;5.50;;;-1.00;99.90;;;;;;5029593;28;20021;-78
2024/01/28 07:51:02;;;;;;;13.73;6.20;;;-0.90;99.90;;;;;;5030016;28;20684;-79
2024/01/28 07:53:28;;;;;;;17.38;5.65;;;-0.90;99.90;;;;;;5028775;28;20116;-78
2024/01/28 07:55:54;;;;;;;15.05;5.82;;;-0.80;99.90;;;;;;5028145;28;20104;-77
2024/01/28 07:58:20;;;;;;;13.05;5.95;;;-0.80;99.90;;;;;;5029445;28;20041;-77
2024/01/28 08:00:46;;;;;;;16.92;5.75;;;-0.70;99.90;;;;;;5029531;28;20500;-77
2024/01/28 08:03:11;;;;;;;12.40;6.22;;;-0.60;99.90;;;;;;5027769;28;20078;-77
2024/01/28 08:05:37;;;;;;;16.85;6.05;;;-0.50;99.90;;;;;;5027698;28;20028;-78
2024/01/28 08:08:03;;;;;;;14.32;5.07;;;-0.50;99.90;;;;;;5030820;28;20508;-78
2024/01/28 08:10:28;;;;;;;12.88;5.47;;;-0.40;99.90;;;;;;5027936;28;20038;-77
2024/01/28 08:12:55;;;;;;;16.27;5.38;;;-0.40;99.90;;;;;;5027266;28;20105;-77
2024/01/28 08:15:21;;;;;;;14.13;6.20;;;-0.30;99.90;;;;;;5026979;28;20116;-79
2024/01/28 08:17:49;;;;;;;16.00;5.88;;;-0.30;99.90;;;;;;5029831;28;20140;-78
2024/01/28 08:20:16;;;;;;;16.02;6.47;;;-0.20;99.90;;;;;;5028137;28;20029;-80
2024/01/28 08:22:42;;;;;;;16.50;5.80;;;-0.10;99.90;;;;;;5025112;28;20040;-77
2024/01/28 08:25:08;;;;;;;11.13;5.25;;;0.10;99.90;;;;;;5024622;28;20030;-77
2024/01/28 08:27:34;;;;;;;17.13;5.00;;;0.30;99.90;;;;;;5033613;28;20036;-77
2024/01/28 08:30:00;;;;;;;15.35;4.95;;;0.50;99.90;;;;;;5028849;28;20037;-79
2024/01/28 08:32:26;;;;;;;17.75;4.70;;;0.80;99.90;;;;;;5026537;28;20036;-78
2024/01/28 08:34:51;;;;;;;13.85;4.70;;;1.00;99.90;;;;;;5028914;28;20059;-78
2024/01/28 08:37:17;;;;;;;13.93;4.78;;;1.30;99.90;;;;;;5028135;28;20030;-78
2024/01/28 08:39:46;;;;;;;13.05;4.22;;;1.50;99.90;;;;;;5032859;28;20030;-77
2024/01/28 08:42:12;;;;;;;7.45;4.18;;;1.90;99.90;;;;;;5030063;28;20038;-79
2024/01/28 08:44:40;;;;;;;13.63;4.68;;;2.00;99.90;;;;;;5032222;28;20466;-79
2024/01/28 08:47:06;;;;;;;12.43;4.40;;;2.10;99.90;;;;;;5030160;28;20036;-80
2024/01/28 08:49:31;;;;;;;13.05;4.22;;;2.30;99.90;;;;;;5030435;28;20112;-80
2024/01/28 08:51:57;;;;;;;10.63;4.30;;;2.40;99.90;;;;;;5031178;28;20034;-81
2024/01/28 08:54:24;;;;;;;18.48;5.15;;;2.70;99.90;;;;;;5033013;28;20029;-80
2024/01/28 08:56:50;;;;;;;11.38;4.03;;;2.80;99.90;;;;;;5034608;28;20048;-81
2024/01/28 08:59:16;;;;;;;9.68;5.63;;;2.90;99.90;;;;;;5016257;28;20029;-82
2024/01/28 09:01:44;;;;;;;13.52;4.72;;;3.00;99.90;;;;;;5017221;28;20344;-81
2024/01/28 09:04:10;;;;;;;10.38;3.67;;;3.10;99.90;;;;;;5039954;28;20052;-82
2024/01/28 09:06:36;;;;;;;10.20;4.00;;;3.10;99.90;;;;;;5034552;28;20033;-82
2024/01/28 09:09:07;;;;;;;11.18;3.60;;;3.30;99.90;;;;;;5036466;28;20057;-81
2024/01/28 09:11:36;;;;;;;11.88;3.60;;;3.40;99.90;;;;;;5035769;28;20028;-81
2024/01/28 09:14:03;;;;;;;10.13;3.53;;;3.40;99.90;;;;;;5036294;28;20069;-79
2024/01/28 09:16:29;;;;;;;13.88;4.22;;;3.60;99.90;;;;;;5067505;28;20107;-79
2024/01/28 09:19:03;;;;;;;9.80;3.83;;;4.00;99.90;;;;;;5017314;28;20034;-77
2024/01/28 09:21:39;;;;;;;8.57;3.40;;;4.20;99.90;;;;;;5020005;28;20037;-78
2024/01/28 09:24:08;;;;;;;12.93;5.38;;;4.30;99.90;;;;;;5035675;28;20156;-79
2024/01/28 09:26:33;;;;;;;10.25;5.55;;;4.40;99.90;;;;;;5031725;28;20124;-78
2024/01/28 09:28:59;;;;;;;14.70;4.65;;;4.60;99.90;;;;;;5013202;28;20116;-78
2024/01/28 09:31:25;;;;;;;14.15;6.07;;;4.60;99.90;;;;;;5030059;28;20474;-78
2024/01/28 09:33:50;;;;;;;13.30;5.05;;;4.80;99.90;;;;;;5014240;28;20048;-78
2024/01/28 09:36:16;;;;;;;14.38;8.57;;;5.00;99.90;;;;;;5013590;28;20041;-78
2024/01/28 09:38:42;;;;;;;16.05;8.00;;;5.00;99.90;;;;;;5029895;28;20034;-80
2024/01/28 09:41:24;;;;;;;11.90;6.72;;;4.80;99.90;;;;;;5013976;28;20500;-79
2024/01/28 09:43:50;;;;;;;10.35;4.30;;;5.10;99.90;;;;;;5013912;28;20129;-80
2024/01/28 09:46:16;;;;;;;5.57;2.97;;;5.10;99.90;;;;;;5030097;28;20073;-79
2024/01/28 09:48:46;;;;;;;10.23;3.05;;;5.40;99.90;;;;;;5013669;28;20051;-79
2024/01/28 09:51:12;;;;;;;6.13;3.03;;;5.40;99.90;;;;;;5029942;28;20116;-79
2024/01/28 09:53:39;;;;;;;6.57;3.22;;;5.50;99.90;;;;;;5032868;28;20042;-80
2024/01/28 09:56:05;;;;;;;5.80;2.90;;;5.70;99.90;;;;;;5032092;28;20048;-79
2024/01/28 09:58:31;;;;;;;8.98;2.80;;;5.80;99.90;;;;;;5031499;28;20091;-78
2024/01/28 10:00:57;;;;;;;8.70;2.90;;;5.90;99.90;;;;;;5030748;28;20030;-80
2024/01/28 10:03:23;;;;;;;8.30;3.20;;;6.10;99.90;;;;;;5031831;28;20048;-80
2024/01/28 10:05:49;;;;;;;9.25;3.45;;;6.20;99.90;;;;;;5029897;28;20025;-79
2024/01/28 10:08:15;;;;;;;8.55;2.67;;;6.20;99.90;;;;;;5029411;28;20497;-79
2024/01/28 10:10:41;;;;;;;7.85;3.25;;;6.20;99.90;;;;;;5030909;28;20025;-79
2024/01/28 10:13:07;;;;;;;7.18;3.10;;;6.30;99.90;;;;;;5045000;28;20037;-79
2024/01/28 10:15:33;;;;;;;8.13;2.83;;;6.40;99.90;;;;;;5028821;28;20443;-79
2024/01/28 10:17:59;;;;;;;4.32;2.05;;;6.60;99.90;;;;;;5029959;28;20502;-79
2024/01/28 10:20:25;;;;;;;7.10;2.45;;;6.80;99.90;;;;;;5029487;28;20048;-79
2024/01/28 10:22:53;;;;;;;8.90;2.80;;;6.80;99.90;;;;;;5029508;28;20068;-79
2024/01/28 10:25:19;;;;;;;10.10;2.88;;;6.90;99.90;;;;;;5029768;28;20025;-77
2024/01/28 10:27:46;;;;;;;4.65;2.08;;;6.80;99.90;;;;;;5028428;28;20025;-78
2024/01/28 10:30:14;;;;;;;6.15;2.80;;;6.50;99.90;;;;;;5029092;28;20053;-79
2024/01/28 10:32:41;;;;;;;9.05;2.97;;;6.20;99.90;;;;;;5029268;28;20029;-78
2024/01/28 10:35:11;;;;;;;6.28;2.60;;;6.00;99.90;;;;;;5024713;28;20482;-78
2024/01/28 10:37:39;;;;;;;7.70;2.60;;;5.80;99.90;;;;;;5029066;28;20037;-78
2024/01/28 10:40:08;;;;;;;6.40;2.70;;;5.80;99.90;;;;;;5026524;28;20018;-78
2024/01/28 10:42:39;;;;;;;6.28;2.70;;;5.80;99.90;;;;;;5029144;28;20587;-78
2024/01/28 10:45:08;;;;;;;8.02;2.50;;;6.10;99.90;;;;;;5031956;28;20025;-78
2024/01/28 10:47:36;;;;;;;6.55;2.35;;;6.20;99.90;;;;;;5032388;28;20025;-78
2024/01/28 10:50:08;;;;;;;10.38;2.53;;;6.30;99.90;;;;;;5015037;28;20509;-78
2024/01/28 10:52:36;;;;;;;8.57;3.00;;;6.30;99.90;;;;;;5032534;28;20037;-78
2024/01/28 10:55:04;;;;;;;8.93;2.42;;;6.60;99.90;;;;;;5052483;28;20072;-77
2024/01/28 10:57:33;;;;;;;5.88;2.30;;;6.70;99.90;;;;;;5030482;28;20033;-78
2024/01/28 11:00:05;;;;;;;5.72;2.05;;;6.50;99.90;;;;;;5033971;28;20482;-79
2024/01/28 11:02:34;;;;;;;14.55;2.92;;;6.60;99.90;;;;;;5031010;28;20124;-77
2024/01/28 11:05:02;;;;;;;6.40;1.98;;;6.40;99.90;;;;;;5031925;28;20497;-78
2024/01/28 11:07:28;;;;;;;4.75;2.17;;;6.30;99.90;;;;;;5030038;28;20087;-78
2024/01/28 11:09:54;;;;;;;8.38;1.92;;;6.30;99.90;;;;;;5033525;28;20037;-78
2024/01/28 11:12:20;;;;;;;4.85;2.17;;;6.30;99.90;;;;;;5030118;28;20175;-78
2024/01/28 11:14:46;;;;;;;6.60;2.22;;;6.60;99.90;;;;;;5031869;28;20029;-78
2024/01/28 11:17:13;;;;;;;5.50;2.17;;;6.80;99.90;;;;;;5030514;28;20048;-78
2024/01/28 11:19:39;;;;;;;7.03;2.22;;;6.80;99.90;;;;;;5035620;28;20509;-78
2024/01/28 11:22:13;;;;;;;3.75;1.55;;;6.80;99.90;;;;;;5033739;28;20041;-78
2024/01/28 11:24:52;;;;;;;10.83;2.20;;;6.80;99.90;;;;;;5030007;28;20109;-78
2024/01/28 11:27:19;;;;;;;3.38;1.73;;;6.60;99.90;;;;;;5043766;28;20318;-77
2024/01/28 11:29:46;;;;;;;8.55;2.35;;;6.50;99.90;;;;;;5031765;28;20036;-78
2024/01/28 11:32:14;;;;;;;3.13;1.83;;;6.60;99.90;;;;;;5046975;28;20035;-78
2024/01/28 11:34:46;;;;;;;4.10;1.70;;;6.60;99.90;;;;;;5024684;28;20108;-78
2024/01/28 11:37:15;;;;;;;3.45;1.92;;;6.50;99.90;;;;;;5028471;28;20067;-77
2024/01/28 11:39:48;;;;;;;8.88;2.00;;;6.80;99.90;;;;;;5030742;28;20082;-78
2024/01/28 11:42:14;;;;;;;6.78;2.17;;;7.10;99.90;;;;;;5031996;28;20167;-78
2024/01/28 11:44:41;;;;;;;2.35;1.55;;;7.40;99.90;;;;;;5031120;28;20037;-78
2024/01/28 11:47:10;;;;;;;6.20;2.17;;;7.50;99.90;;;;;;5027802;28;20025;-78
2024/01/28 11:49:36;;;;;;;2.03;1.40;;;7.20;99.90;;;;;;5032623;28;20044;-78
2024/01/28 11:52:04;;;;;;;4.05;2.10;;;7.00;99.90;;;;;;5028512;28;20494;-78
2024/01/28 11:54:30;;;;;;;6.03;1.95;;;6.70;99.90;;;;;;5029817;28;20033;-78
2024/01/28 11:56:56;;;;;;;4.78;1.63;;;6.40;99.90;;;;;;5029177;28;20049;-77
2024/01/28 11:59:22;;;;;;;5.32;1.85;;;6.50;99.90;;;;;;5027210;28;20034;-77
2024/01/28 12:01:48;;;;;;;5.85;1.63;;;6.60;99.90;;;;;;5030855;28;20806;-77
2024/01/28 12:04:13;;;;;;;5.45;1.98;;;6.90;99.90;;;;;;5024866;28;20103;-77
2024/01/28 12:06:39;;;;;;;5.78;1.55;;;6.90;99.90;;;;;;5042551;28;20042;-77
2024/01/28 12:09:05;;;;;;;8.15;2.00;;;7.00;99.90;;;;;;5049561;28;20053;-78
2024/01/28 12:11:32;;;;;;;4.15;1.33;;;6.70;99.90;;;;;;5021572;28;20033;-77
2024/01/28 12:14:02;;;;;;;3.75;1.83;;;6.50;99.90;;;;;;5049239;28;20040;-78
2024/01/28 12:16:29;;;;;;;3.53;1.70;;;6.10;99.90;;;;;;5046972;28;20493;-77
2024/01/28 12:18:56;;;;;;;4.68;1.73;;;6.00;99.90;;;;;;5001517;28;20441;-78
2024/01/28 12:21:24;;;;;;;6.07;1.65;;;5.90;99.90;;;;;;5032828;28;20437;-78
2024/01/28 12:23:57;;;;;;;8.55;1.77;;;5.80;99.90;;;;;;5015726;28;20451;-78
2024/01/28 12:26:23;;;;;;;7.43;1.63;;;5.90;99.90;;;;;;5030662;28;20057;-78
2024/01/28 12:28:51;;;;;;;4.63;1.45;;;6.00;99.90;;;;;;5030014;28;20080;-78
2024/01/28 12:31:20;;;;;;;5.15;1.67;;;6.10;99.90;;;;;;4995071;28;20033;-78
2024/01/28 12:33:47;;;;;;;6.10;1.75;;;6.00;99.90;;;;;;5029365;28;20124;-78
2024/01/28 12:36:13;;;;;;;4.10;1.85;;;6.00;99.90;;;;;;5045324;28;20057;-78
2024/01/28 12:38:39;;;;;;;2.78;1.58;;;6.10;99.90;;;;;;5031599;28;20060;-78